createdAt,value
2018-09-04T00:01:33.384Z,101222.02
2018-09-04T00:04:02.226Z,101220.84
2018-09-04T00:06:31.103Z,101220.88
2018-09-04T00:08:59.980Z,101223.33
2018-09-04T00:11:28.871Z,101222.23
2018-09-04T00:13:57.716Z,101235.64
2018-09-04T00:16:26.573Z,101232.19
2018-09-04T00:18:55.442Z,101239.81
2018-09-04T00:21:24.293Z,101233.94
2018-09-04T00:23:53.161Z,101233.56
2018-09-04T00:26:22.094Z,101243.20
2018-09-04T00:28:50.937Z,101244.27
2018-09-04T00:31:19.794Z,101232.19
2018-09-04T00:33:48.673Z,101233.56
2018-09-04T00:36:17.562Z,101218.25
2018-09-04T00:38:46.406Z,101213.27
2018-09-04T00:41:15.243Z,101209.99
2018-09-04T00:43:44.145Z,101205.86
2018-09-04T00:46:13.002Z,101199.17
2018-09-04T00:48:41.831Z,101199.69
2018-09-04T00:51:10.687Z,101195.78
2018-09-04T00:53:39.517Z,101195.05
2018-09-04T00:56:08.395Z,101191.99
2018-09-04T00:58:37.268Z,101193.59
2018-09-04T01:01:06.111Z,101195.66
2018-09-04T01:03:34.966Z,101194.14
2018-09-04T01:06:03.845Z,101191.58
2018-09-04T01:08:32.715Z,101191.99
2018-09-04T01:11:01.627Z,101190.95
2018-09-04T01:13:30.480Z,101186.36
2018-09-04T01:15:59.339Z,101190.86
2018-09-04T01:18:28.230Z,101185.95
2018-09-04T01:20:57.076Z,101187.84
2018-09-04T01:23:25.982Z,101191.97
2018-09-04T01:25:54.814Z,101192.50
2018-09-04T01:28:23.686Z,101189.75
2018-09-04T01:30:52.536Z,101190.27
2018-09-04T01:33:21.399Z,101185.91
2018-09-04T01:35:50.286Z,101187.73
2018-09-04T01:38:19.145Z,101186.09
2018-09-04T01:40:48.039Z,101180.36
2018-09-04T01:43:16.902Z,101175.48
2018-09-04T01:45:45.769Z,101172.46
2018-09-04T01:48:15.172Z,101172.73
2018-09-04T01:50:44.593Z,101169.33
2018-09-04T01:53:13.701Z,101169.70
2018-09-04T01:55:42.565Z,101172.45
2018-09-04T01:58:11.423Z,101170.63
2018-09-04T02:00:40.268Z,101164.84
2018-09-04T02:03:09.141Z,101171.05
2018-09-04T02:05:37.994Z,101161.50
2018-09-04T02:08:06.897Z,101158.79
2018-09-04T02:10:35.760Z,101154.14
2018-09-04T02:13:04.661Z,101151.06
2018-09-04T02:15:33.538Z,101142.09
2018-09-04T02:18:02.375Z,101147.08
2018-09-04T02:20:31.247Z,101150.20
2018-09-04T02:23:00.108Z,101154.03
2018-09-04T02:25:29.114Z,101160.42
2018-09-04T02:27:58.006Z,101158.06
2018-09-04T02:30:26.877Z,101157.30
2018-09-04T02:32:55.794Z,101158.67
2018-09-04T02:35:24.574Z,101159.16
2018-09-04T02:37:53.412Z,101155.33
2018-09-04T02:40:22.267Z,101154.73
2018-09-04T02:42:51.128Z,101159.23
2018-09-04T02:45:19.956Z,101164.59
2018-09-04T02:47:48.877Z,101166.16
2018-09-04T02:50:17.727Z,101167.01
2018-09-04T02:52:46.594Z,101162.95
2018-09-04T02:55:15.425Z,101156.83
2018-09-04T02:57:44.376Z,101157.34
2018-09-04T03:00:13.238Z,101154.22
2018-09-04T03:02:42.088Z,101152.23
2018-09-04T03:05:10.969Z,101154.22
2018-09-04T03:07:39.840Z,101160.65
2018-09-04T03:10:08.826Z,101161.44
2018-09-04T03:12:37.766Z,101151.91
2018-09-04T03:15:06.670Z,101154.69
2018-09-04T03:17:35.513Z,101150.61
2018-09-04T03:20:04.498Z,101156.94
2018-09-04T03:22:33.337Z,101153.91
2018-09-04T03:25:02.219Z,101157.11
2018-09-04T03:27:31.083Z,101165.05
2018-09-04T03:29:59.932Z,101169.05
2018-09-04T03:32:28.775Z,101177.56
2018-09-04T03:34:57.654Z,101183.77
2018-09-04T03:37:26.517Z,101187.59
2018-09-04T03:39:55.333Z,101187.66
2018-09-04T03:42:24.296Z,101193.48
2018-09-04T03:44:53.056Z,101190.26
2018-09-04T03:47:21.901Z,101186.91
2018-09-04T03:49:50.789Z,101189.84
2018-09-04T03:52:19.678Z,101186.61
2018-09-04T03:54:48.480Z,101196.03
2018-09-04T03:57:17.354Z,101196.34
2018-09-04T03:59:46.200Z,101198.79
2018-09-04T04:02:15.084Z,101199.67
2018-09-04T04:04:43.931Z,101202.13
2018-09-04T04:07:12.816Z,101205.17
2018-09-04T04:09:41.658Z,101204.88
2018-09-04T04:12:10.639Z,101219.16
2018-09-04T04:14:39.340Z,101217.61
2018-09-04T04:17:08.445Z,101217.11
2018-09-04T04:19:37.272Z,101216.96
2018-09-04T04:22:06.262Z,101217.36
2018-09-04T04:24:35.187Z,101214.73
2018-09-04T04:27:04.034Z,101218.67
2018-09-04T04:29:33.095Z,101216.68
2018-09-04T04:32:01.923Z,101223.10
2018-09-04T04:34:30.785Z,101214.34
2018-09-04T04:36:59.622Z,101214.00
2018-09-04T04:39:28.497Z,101214.03
2018-09-04T04:41:57.559Z,101214.09
2018-09-04T04:44:26.634Z,101217.03
2018-09-04T04:46:55.467Z,101215.50
2018-09-04T04:49:24.494Z,101211.89
2018-09-04T04:51:53.281Z,101216.90
2018-09-04T04:54:22.152Z,101210.39
2018-09-04T04:56:51.033Z,101211.43
2018-09-04T04:59:19.915Z,101219.16
2018-09-04T05:01:48.800Z,101228.77
2018-09-04T05:04:17.674Z,101233.77
2018-09-04T05:06:46.506Z,101237.37
2018-09-04T05:09:15.408Z,101245.44
2018-09-04T05:11:44.269Z,101244.92
2018-09-04T05:14:13.188Z,101238.23
2018-09-04T05:16:42.045Z,101230.69
2018-09-04T05:19:10.900Z,101241.84
2018-09-04T05:21:39.785Z,101238.72
2018-09-04T05:24:08.660Z,101241.08
2018-09-04T05:26:37.497Z,101243.83
2018-09-04T05:29:06.371Z,101244.02
2018-09-04T05:31:39.884Z,101246.91
2018-09-04T05:34:08.806Z,101244.84
2018-09-04T05:36:37.694Z,101246.16
2018-09-04T05:39:08.833Z,101240.63
2018-09-04T05:41:37.685Z,101252.23
2018-09-04T05:44:06.547Z,101243.42
2018-09-04T05:46:38.116Z,101238.09
2018-09-04T05:49:07.464Z,101240.50
2018-09-04T05:51:36.359Z,101239.64
2018-09-04T05:54:05.208Z,101239.28
2018-09-04T05:56:34.062Z,101243.55
2018-09-04T05:59:02.893Z,101249.51
2018-09-04T06:01:32.017Z,101250.33
2018-09-04T06:04:00.883Z,101254.02
2018-09-04T06:06:29.734Z,101256.66
2018-09-04T06:08:58.573Z,101257.30
2018-09-04T06:11:27.425Z,101260.61
2018-09-04T06:13:56.274Z,101257.73
2018-09-04T06:16:25.129Z,101254.93
2018-09-04T06:18:53.987Z,101260.87
2018-09-04T06:21:22.826Z,101264.48
2018-09-04T06:23:51.671Z,101269.75
2018-09-04T06:26:20.529Z,101268.81
2018-09-04T06:28:49.372Z,101267.52
2018-09-04T06:31:18.216Z,101267.77
2018-09-04T06:33:47.123Z,101266.53
2018-09-04T06:36:15.975Z,101258.94
2018-09-04T06:38:44.837Z,101262.67
2018-09-04T06:41:13.683Z,101266.29
2018-09-04T06:43:42.943Z,101260.31
2018-09-04T06:46:11.795Z,101265.48
2018-09-04T06:48:40.795Z,101264.63
2018-09-04T06:51:09.701Z,101268.05
2018-09-04T06:53:38.566Z,101270.95
2018-09-04T06:56:07.483Z,101273.51
2018-09-04T06:58:36.297Z,101278.83
2018-09-04T07:01:05.264Z,101279.68
2018-09-04T07:03:34.144Z,101282.44
2018-09-04T07:06:03.071Z,101285.72
2018-09-04T07:08:32.035Z,101284.86
2018-09-04T07:11:00.905Z,101287.42
2018-09-04T07:13:29.771Z,101284.72
2018-09-04T07:15:58.622Z,101279.82
2018-09-04T07:18:28.310Z,101277.30
2018-09-04T07:20:57.183Z,101270.20
2018-09-04T07:23:26.321Z,101269.22
2018-09-04T07:25:55.165Z,101264.27
2018-09-04T07:28:24.090Z,101265.65
2018-09-04T07:30:52.950Z,101265.73
2018-09-04T07:33:21.839Z,101260.95
2018-09-04T07:35:50.739Z,101265.27
2018-09-04T07:38:19.802Z,101267.33
2018-09-04T07:40:48.552Z,101262.55
2018-09-04T07:43:17.421Z,101257.05
2018-09-04T07:45:46.276Z,101255.27
2018-09-04T07:48:15.171Z,101250.09
2018-09-04T07:50:44.085Z,101256.04
2018-09-04T07:53:12.985Z,101262.77
2018-09-04T07:55:41.846Z,101255.87
2018-09-04T07:58:10.724Z,101266.34
2018-09-04T08:00:39.613Z,101269.66
2018-09-04T08:03:08.571Z,101260.90
2018-09-04T08:05:37.716Z,101263.04
2018-09-04T08:08:06.644Z,101262.06
2018-09-04T08:10:36.224Z,101261.43
2018-09-04T08:13:06.613Z,101254.17
2018-09-04T08:15:36.036Z,101255.77
2018-09-04T08:18:05.072Z,101260.70
2018-09-04T08:20:34.143Z,101265.76
2018-09-04T08:23:02.830Z,101266.80
2018-09-04T08:25:31.833Z,101259.03
2018-09-04T08:28:00.713Z,101263.13
2018-09-04T08:30:29.584Z,101261.48
2018-09-04T08:32:58.589Z,101262.05
2018-09-04T08:35:27.307Z,101260.05
2018-09-04T08:37:59.343Z,101256.17
2018-09-04T08:40:29.629Z,101260.22
2018-09-04T08:42:58.545Z,101265.70
2018-09-04T08:45:27.432Z,101262.19
2018-09-04T08:47:59.190Z,101258.30
2018-09-04T08:50:28.657Z,101261.48
2018-09-04T08:52:57.512Z,101259.46
2018-09-04T08:55:26.494Z,101262.66
2018-09-04T08:57:55.270Z,101268.86
2018-09-04T09:00:24.159Z,101263.78
2018-09-04T09:02:53.017Z,101259.33
2018-09-04T09:05:21.888Z,101258.20
2018-09-04T09:07:50.733Z,101250.78
2018-09-04T09:10:19.615Z,101248.37
2018-09-04T09:12:48.517Z,101242.03
2018-09-04T09:15:17.346Z,101242.09
2018-09-04T09:17:46.199Z,101240.36
2018-09-04T09:20:15.089Z,101241.58
2018-09-04T09:22:44.294Z,101238.52
2018-09-04T09:25:13.174Z,101239.25
2018-09-04T09:27:42.144Z,101233.05
2018-09-04T09:30:11.473Z,101233.64
2018-09-04T09:32:40.474Z,101232.59
2018-09-04T09:35:09.508Z,101232.73
2018-09-04T09:37:38.356Z,101228.26
2018-09-04T09:40:07.238Z,101223.69
2018-09-04T09:42:36.254Z,101228.80
2018-09-04T09:45:05.501Z,101227.88
2018-09-04T09:47:34.362Z,101223.98
2018-09-04T09:50:03.224Z,101221.02
2018-09-04T09:52:32.158Z,101222.86
2018-09-04T09:55:00.944Z,101226.00
2018-09-04T09:57:29.807Z,101227.92
2018-09-04T09:59:58.725Z,101226.67
2018-09-04T10:02:45.233Z,101229.20
2018-09-04T10:05:14.075Z,101227.73
2018-09-04T10:07:43.019Z,101229.37
2018-09-04T10:10:11.879Z,101227.45
2018-09-04T10:12:40.661Z,101230.16
2018-09-04T10:15:09.517Z,101222.75
2018-09-04T10:17:38.383Z,101225.80
2018-09-04T10:20:07.219Z,101224.44
2018-09-04T10:22:36.088Z,101223.57
2018-09-04T10:25:05.461Z,101213.95
2018-09-04T10:27:34.595Z,101219.03
2018-09-04T10:30:03.638Z,101217.92
2018-09-04T10:32:32.560Z,101222.37
2018-09-04T10:35:01.543Z,101220.39
2018-09-04T10:37:30.495Z,101219.76
2018-09-04T10:40:17.444Z,101216.42
2018-09-04T10:42:46.326Z,101217.09
2018-09-04T10:45:32.846Z,101218.96
2018-09-04T10:48:01.708Z,101210.92
2018-09-04T10:50:30.568Z,101212.93
2018-09-04T10:52:59.422Z,101217.35
2018-09-04T10:55:28.312Z,101213.42
2018-09-04T10:57:57.258Z,101204.66
2018-09-04T11:00:26.102Z,101195.83
2018-09-04T11:02:54.962Z,101202.31
2018-09-04T11:05:23.831Z,101198.12
2018-09-04T11:07:52.709Z,101199.11
2018-09-04T11:10:21.562Z,101190.61
2018-09-04T11:12:50.479Z,101205.37
2018-09-04T11:15:19.357Z,101198.76
2018-09-04T11:17:48.204Z,101205.29
2018-09-04T11:20:17.069Z,101201.97
2018-09-04T11:22:45.937Z,101195.58
2018-09-04T11:25:14.894Z,101192.14
2018-09-04T11:27:43.812Z,101196.30
2018-09-04T11:30:16.199Z,101201.83
2018-09-04T11:32:45.150Z,101200.86
2018-09-04T11:35:14.112Z,101195.78
2018-09-04T11:37:43.234Z,101195.95
2018-09-04T11:40:12.114Z,101195.44
2018-09-04T11:42:41.201Z,101199.06
2018-09-04T11:45:10.551Z,101199.22
2018-09-04T11:47:41.579Z,101195.16
2018-09-04T11:50:10.865Z,101196.23
2018-09-04T11:52:42.534Z,101184.22
2018-09-04T11:55:11.909Z,101189.89
2018-09-04T11:57:41.400Z,101193.95
2018-09-04T12:00:15.919Z,101191.95
2018-09-04T12:02:45.303Z,101195.30
2018-09-04T12:05:14.287Z,101198.55
2018-09-04T12:07:43.145Z,101199.86
2018-09-04T12:10:12.009Z,101195.28
2018-09-04T12:12:41.159Z,101198.20
2018-09-04T12:15:09.841Z,101193.44
2018-09-04T12:17:38.732Z,101197.28
2018-09-04T12:20:34.984Z,101196.16
2018-09-04T12:23:03.809Z,101189.92
2018-09-04T12:25:32.664Z,101191.48
2018-09-04T12:28:02.733Z,101191.61
2018-09-04T12:30:31.685Z,101195.83
2018-09-04T12:33:01.287Z,101200.31
2018-09-04T12:35:30.611Z,101199.61
2018-09-04T12:37:59.709Z,101196.84
2018-09-04T12:40:28.569Z,101194.61
2018-09-04T12:42:57.419Z,101196.31
2018-09-04T12:45:26.250Z,101205.89
2018-09-04T12:47:55.169Z,101206.39
2018-09-04T12:50:23.998Z,101208.74
2018-09-04T12:52:52.819Z,101200.02
2018-09-04T12:55:21.724Z,101197.27
2018-09-04T12:57:50.615Z,101196.19
2018-09-04T13:00:19.543Z,101200.02
2018-09-04T13:02:48.409Z,101203.26
2018-09-04T13:05:17.629Z,101208.05
2018-09-04T13:07:46.498Z,101209.28
2018-09-04T13:10:15.583Z,101211.12
2018-09-04T13:12:44.471Z,101203.18
2018-09-04T13:15:13.926Z,101208.52
2018-09-04T13:17:42.767Z,101220.91
2018-09-04T13:20:11.639Z,101228.64
2018-09-04T13:22:40.473Z,101229.97
2018-09-04T13:25:09.330Z,101228.17
2018-09-04T13:27:38.170Z,101228.56
2018-09-04T13:30:07.040Z,101225.88
2018-09-04T13:32:35.952Z,101227.34
2018-09-04T13:35:04.928Z,101227.92
2018-09-04T13:37:33.796Z,101222.59
2018-09-04T13:40:03.457Z,101214.12
2018-09-04T13:42:33.445Z,101213.48
2018-09-04T13:45:02.358Z,101215.95
2018-09-04T13:47:32.776Z,101227.88
2018-09-04T13:50:01.614Z,101231.77
2018-09-04T13:52:31.481Z,101245.92
2018-09-04T13:55:00.304Z,101253.43
2018-09-04T13:57:29.685Z,101256.05
2018-09-04T13:59:58.596Z,101263.41
2018-09-04T14:02:27.461Z,101250.97
2018-09-04T14:04:56.307Z,101246.30
2018-09-04T14:07:25.193Z,101241.79
2018-09-04T14:09:54.072Z,101244.47
2018-09-04T14:12:22.891Z,101240.92
2018-09-04T14:14:51.755Z,101241.61
2018-09-04T14:17:21.122Z,101235.94
2018-09-04T14:19:49.950Z,101236.11
2018-09-04T14:22:18.867Z,101230.25
2018-09-04T14:24:47.664Z,101230.69
2018-09-04T14:27:16.519Z,101230.91
2018-09-04T14:32:14.242Z,101222.66
2018-09-04T14:34:43.072Z,101215.26
2018-09-04T14:37:12.081Z,101218.19
2018-09-04T14:39:40.800Z,101218.98
2018-09-04T14:42:09.748Z,101218.25
2018-09-04T14:44:38.559Z,101221.14
2018-09-04T14:47:07.414Z,101226.02
2018-09-04T14:49:36.290Z,101222.59
2018-09-04T14:52:05.223Z,101223.84
2018-09-04T14:54:34.106Z,101217.81
2018-09-04T14:57:03.039Z,101219.30
2018-09-04T14:59:31.846Z,101220.11
2018-09-04T15:02:00.726Z,101224.20
2018-09-04T15:04:29.575Z,101222.68
2018-09-04T15:06:58.414Z,101225.42
2018-09-04T15:09:27.254Z,101226.58
2018-09-04T15:11:56.181Z,101221.98
2018-09-04T15:14:25.028Z,101220.44
2018-09-04T15:16:55.458Z,101225.23
2018-09-04T15:19:24.372Z,101225.95
2018-09-04T15:21:53.310Z,101222.01
2018-09-04T15:24:22.159Z,101220.53
2018-09-04T15:26:51.089Z,101218.06
2018-09-04T15:29:19.964Z,101218.09
2018-09-04T15:31:48.821Z,101215.31
2018-09-04T15:34:17.669Z,101210.92
2018-09-04T15:36:46.521Z,101216.59
2018-09-04T15:39:15.370Z,101223.96
2018-09-04T15:41:44.206Z,101224.92
2018-09-04T15:44:13.096Z,101224.19
2018-09-04T15:46:41.944Z,101223.73
2018-09-04T15:49:28.358Z,101224.48
2018-09-04T15:51:57.155Z,101214.14
2018-09-04T15:54:26.022Z,101210.77
2018-09-04T15:56:54.917Z,101219.36
2018-09-04T15:59:23.672Z,101217.30
2018-09-04T16:01:52.537Z,101228.02
2018-09-04T16:04:21.365Z,101227.61
2018-09-04T16:06:50.236Z,101233.23
2018-09-04T16:09:19.041Z,101230.84
2018-09-04T16:11:47.910Z,101230.27
2018-09-04T16:14:16.796Z,101233.31
2018-09-04T16:16:45.673Z,101231.23
2018-09-04T16:19:14.531Z,101231.52
2018-09-04T16:21:43.437Z,101228.75
2018-09-04T16:24:12.271Z,101225.82
2018-09-04T16:26:41.224Z,101222.16
2018-09-04T16:29:10.061Z,101215.48
2018-09-04T16:31:39.046Z,101222.03
2018-09-04T16:34:07.934Z,101214.20
2018-09-04T16:36:36.790Z,101215.42
2018-09-04T16:39:06.071Z,101217.67
2018-09-04T16:41:34.956Z,101209.63
2018-09-04T16:44:04.264Z,101214.90
2018-09-04T16:46:33.139Z,101212.70
2018-09-04T16:49:02.018Z,101215.20
2018-09-04T16:51:30.921Z,101216.06
2018-09-04T16:53:59.779Z,101219.62
2018-09-04T16:56:28.697Z,101211.88
2018-09-04T16:58:57.647Z,101217.49
2018-09-04T17:01:26.493Z,101217.00
2018-09-04T17:03:55.413Z,101213.16
2018-09-04T17:06:24.264Z,101215.86
2018-09-04T17:08:53.153Z,101215.53
2018-09-04T17:11:22.004Z,101217.16
2018-09-04T17:13:50.877Z,101218.36
2018-09-04T17:16:19.755Z,101216.44
2018-09-04T17:18:48.639Z,101219.66
2018-09-04T17:21:17.501Z,101222.17
2018-09-04T17:23:46.369Z,101223.37
2018-09-04T17:26:15.216Z,101222.27
2018-09-04T17:28:44.053Z,101231.33
2018-09-04T17:31:12.991Z,101235.16
2018-09-04T17:33:41.853Z,101234.97
2018-09-04T17:36:10.759Z,101235.31
2018-09-04T17:38:39.676Z,101239.55
2018-09-04T17:41:08.534Z,101239.78
2018-09-04T17:43:37.407Z,101242.73
2018-09-04T17:46:06.687Z,101239.64
2018-09-04T17:48:35.630Z,101246.98
2018-09-04T17:51:04.521Z,101244.73
2018-09-04T17:53:33.433Z,101241.13
2018-09-04T17:56:02.397Z,101240.37
2018-09-04T17:58:31.258Z,101239.94
2018-09-04T18:01:00.132Z,101242.79
2018-09-04T18:03:29.021Z,101248.20
2018-09-04T18:05:57.854Z,101249.05
2018-09-04T18:08:26.744Z,101245.39
2018-09-04T18:10:55.622Z,101247.83
2018-09-04T18:13:24.461Z,101254.61
2018-09-04T18:15:53.320Z,101265.74
2018-09-04T18:18:22.151Z,101261.66
2018-09-04T18:20:51.036Z,101261.52
2018-09-04T18:23:19.915Z,101269.54
2018-09-04T18:25:49.067Z,101270.90
2018-09-04T18:28:17.929Z,101272.45
2018-09-04T18:30:46.987Z,101273.05
2018-09-04T18:33:15.826Z,101282.16
2018-09-04T18:35:44.676Z,101277.95
2018-09-04T18:38:13.550Z,101285.55
2018-09-04T18:40:42.780Z,101289.03
2018-09-04T18:43:11.823Z,101289.09
2018-09-04T18:45:56.941Z,101297.11
2018-09-04T18:48:26.424Z,101300.02
2018-09-04T18:50:55.303Z,101303.30
2018-09-04T18:53:24.159Z,101309.73
2018-09-04T18:55:53.043Z,101305.92
2018-09-04T18:58:21.980Z,101303.98
2018-09-04T19:00:50.849Z,101303.52
2018-09-04T19:03:19.736Z,101295.73
2018-09-04T19:05:48.627Z,101302.95
2018-09-04T19:08:17.536Z,101299.71
2018-09-04T19:10:46.393Z,101299.66
2018-09-04T19:13:15.245Z,101305.95
2018-09-04T19:15:44.096Z,101306.77
2018-09-04T19:18:13.107Z,101304.48
2018-09-04T19:20:42.357Z,101302.63
2018-09-04T19:23:11.759Z,101306.00
2018-09-04T19:25:42.478Z,101310.84
2018-09-04T19:28:11.377Z,101311.70
2018-09-04T19:30:40.210Z,101311.95
2018-09-04T19:33:09.118Z,101314.59
2018-09-04T19:35:38.007Z,101312.94
2018-09-04T19:38:06.878Z,101311.70
2018-09-04T19:40:35.711Z,101320.70
2018-09-04T19:43:04.548Z,101315.19
2018-09-04T19:45:33.503Z,101319.83
2018-09-04T19:48:02.341Z,101323.91
2018-09-04T19:50:31.232Z,101317.41
2018-09-04T19:53:00.137Z,101315.27
2018-09-04T19:55:29.091Z,101317.88
2018-09-04T19:57:57.886Z,101319.92
2018-09-04T20:00:26.742Z,101322.09
2018-09-04T20:02:55.661Z,101323.76
2018-09-04T20:05:24.451Z,101318.89
2018-09-04T20:07:53.285Z,101328.34
2018-09-04T20:10:22.253Z,101325.15
2018-09-04T20:12:51.143Z,101330.32
2018-09-04T20:15:20.132Z,101321.31
2018-09-04T20:17:49.183Z,101320.16
2018-09-04T20:20:18.103Z,101328.09
2018-09-04T20:22:47.041Z,101327.80
2018-09-04T20:25:15.951Z,101320.13
2018-09-04T20:27:44.896Z,101322.74
2018-09-04T20:30:13.696Z,101326.42
2018-09-04T20:32:42.572Z,101315.36
2018-09-04T20:35:11.467Z,101318.34
2018-09-04T20:37:40.328Z,101318.57
2018-09-04T20:40:09.189Z,101317.11
2018-09-04T20:42:38.049Z,101321.77
2018-09-04T20:45:07.060Z,101318.49
2018-09-04T20:47:35.904Z,101318.55
2018-09-04T20:50:04.762Z,101318.12
2018-09-04T20:52:33.605Z,101323.00
2018-09-04T20:55:02.490Z,101325.88
2018-09-04T20:57:34.423Z,101326.06
2018-09-04T21:00:39.611Z,101327.77
2018-09-04T21:03:44.784Z,101324.23
2018-09-04T21:06:45.365Z,101319.70
2018-09-04T21:10:00.937Z,101322.97
2018-09-04T21:12:29.831Z,101323.64
2018-09-04T21:14:58.728Z,101324.45
2018-09-04T21:17:27.602Z,101324.27
2018-09-04T21:19:56.476Z,101319.98
2018-09-04T21:22:25.318Z,101327.66
2018-09-04T21:24:54.209Z,101333.87
2018-09-04T21:27:23.026Z,101327.73
2018-09-04T21:29:51.868Z,101324.34
2018-09-04T21:32:20.722Z,101325.57
2018-09-04T21:34:49.542Z,101319.92
2018-09-04T21:37:18.405Z,101322.34
2018-09-04T21:39:47.263Z,101322.41
2018-09-04T21:42:16.174Z,101326.58
2018-09-04T21:44:44.989Z,101328.14
2018-09-04T21:47:13.831Z,101327.73
2018-09-04T21:49:42.704Z,101331.45
2018-09-04T21:52:11.540Z,101327.24
2018-09-04T21:54:40.409Z,101327.95
2018-09-04T21:57:09.255Z,101328.98
2018-09-04T21:59:38.110Z,101338.28
2018-09-04T22:02:06.977Z,101337.09
2018-09-04T22:04:35.843Z,101326.42
2018-09-04T22:07:04.723Z,101322.63
2018-09-04T22:09:37.164Z,101331.93
2018-09-04T22:12:08.106Z,101331.74
2018-09-04T22:14:36.954Z,101329.17
2018-09-04T22:17:05.851Z,101327.28
2018-09-04T22:19:34.685Z,101326.42
2018-09-04T22:22:03.533Z,101325.72
2018-09-04T22:24:34.705Z,101327.09
2018-09-04T22:27:07.346Z,101330.70
2018-09-04T22:29:37.690Z,101325.20
2018-09-04T22:32:06.564Z,101325.20
2018-09-04T22:34:35.373Z,101322.97
2018-09-04T22:37:04.690Z,101322.26
2018-09-04T22:39:33.532Z,101324.86
2018-09-04T22:42:02.380Z,101323.16
2018-09-04T22:44:31.224Z,101320.92
2018-09-04T22:47:00.349Z,101318.69
2018-09-04T22:49:29.200Z,101320.40
2018-09-04T22:52:01.834Z,101324.86
2018-09-04T22:54:30.691Z,101319.69
2018-09-04T22:56:59.522Z,101317.95
2018-09-04T22:59:28.474Z,101322.70
2018-09-04T23:01:57.332Z,101325.09
2018-09-04T23:04:26.220Z,101315.75
2018-09-04T23:06:55.119Z,101312.14
2018-09-04T23:09:23.928Z,101316.09
2018-09-04T23:11:52.739Z,101319.14
2018-09-04T23:14:21.615Z,101314.30
2018-09-04T23:16:50.442Z,101315.49
2018-09-04T23:19:19.262Z,101320.22
2018-09-04T23:21:48.092Z,101316.42
2018-09-04T23:24:16.975Z,101314.34
2018-09-04T23:26:45.854Z,101312.25
2018-09-04T23:29:14.708Z,101314.81
2018-09-04T23:31:43.553Z,101309.64
2018-09-04T23:34:12.395Z,101309.64
2018-09-04T23:36:41.221Z,101309.97
2018-09-04T23:39:10.120Z,101314.61
2018-09-04T23:41:39.001Z,101312.30
2018-09-04T23:44:07.954Z,101312.30
2018-09-04T23:46:36.796Z,101312.96
2018-09-04T23:49:06.548Z,101311.36
2018-09-04T23:51:35.410Z,101312.44
2018-09-04T23:54:04.257Z,101307.45
2018-09-04T23:56:33.093Z,101306.27
2018-09-04T23:59:01.959Z,101307.97
